Time;durP1;ratioP1;P1;durP2;ratioP2;P2;SDS_P1;SDS_P2;PMS_P1;PMS_P2;Temp;Humidity;BMP_temperature;BMP_pressure;BME280_temperature;BME280_humidity;BME280_pressure;Samples;Min_cycle;Max_cycle;Signal;HPM_P1;HPM_P2
2023/08/21 00:00:20;;;;;;;3.85;1.50;;;21.60;93.40;;;;;;6101159;23;20085;-81
2023/08/21 00:02:46;;;;;;;3.47;1.52;;;21.60;93.40;;;;;;6127128;23;20396;-80
2023/08/21 00:05:12;;;;;;;2.55;1.40;;;21.60;93.40;;;;;;6100696;23;20006;-81
2023/08/21 00:07:37;;;;;;;3.03;1.33;;;21.60;93.40;;;;;;6127021;23;20453;-81
2023/08/21 00:10:03;;;;;;;2.70;1.30;;;21.60;93.40;;;;;;6101041;23;19998;-81
2023/08/21 00:12:29;;;;;;;4.65;1.70;;;21.60;93.40;;;;;;6125983;23;19998;-81
2023/08/21 00:14:54;;;;;;;2.70;1.13;;;21.60;93.40;;;;;;6100632;23;20010;-81
2023/08/21 00:17:20;;;;;;;2.72;1.38;;;21.60;93.40;;;;;;6100959;23;20002;-81
2023/08/21 00:19:45;;;;;;;4.00;1.23;;;21.50;93.30;;;;;;6100767;23;20013;-81
2023/08/21 00:22:11;;;;;;;4.32;1.35;;;21.50;93.30;;;;;;6126971;23;20002;-81
2023/08/21 00:24:36;;;;;;;3.20;1.25;;;21.50;93.30;;;;;;6100381;23;20412;-82
2023/08/21 00:27:03;;;;;;;2.80;1.20;;;21.50;93.30;;;;;;6131044;23;19994;-82
2023/08/21 00:29:29;;;;;;;2.30;1.13;;;21.50;93.30;;;;;;6106840;23;20013;-82
2023/08/21 00:31:55;;;;;;;4.18;1.30;;;21.50;93.20;;;;;;6106399;23;20017;-82
2023/08/21 00:34:20;;;;;;;3.75;1.27;;;21.50;93.20;;;;;;6105676;23;20002;-82
2023/08/21 00:36:46;;;;;;;3.65;1.35;;;21.50;93.20;;;;;;6105673;23;20009;-82
2023/08/21 00:39:11;;;;;;;3.75;1.40;;;21.50;93.10;;;;;;6131471;23;20060;-82
2023/08/21 00:41:37;;;;;;;3.03;1.20;;;21.50;93.20;;;;;;6105583;23;20315;-82
2023/08/21 00:44:03;;;;;;;3.92;1.42;;;21.50;93.20;;;;;;6104439;23;20002;-82
2023/08/21 00:46:30;;;;;;;3.92;1.48;;;21.50;93.20;;;;;;6104599;23;20006;-83
2023/08/21 00:48:55;;;;;;;4.07;1.40;;;21.50;93.20;;;;;;6106718;23;20322;-83
2023/08/21 00:51:21;;;;;;;2.38;1.17;;;21.50;93.20;;;;;;6106491;23;20029;-82
2023/08/21 00:53:47;;;;;;;4.60;1.42;;;21.50;93.20;;;;;;6131958;23;20002;-82
2023/08/21 00:56:13;;;;;;;3.97;1.50;;;21.50;93.10;;;;;;6131809;23;20006;-81
2023/08/21 00:58:39;;;;;;;4.07;1.50;;;21.50;93.10;;;;;;6104913;23;20041;-82
2023/08/21 01:01:04;;;;;;;4.07;1.50;;;21.50;93.10;;;;;;6104831;23;20013;-82
2023/08/21 01:03:30;;;;;;;3.08;1.20;;;21.60;93.10;;;;;;6131213;23;20051;-82
2023/08/21 01:05:56;;;;;;;5.03;1.42;;;21.60;93.10;;;;;;6105563;23;20002;-82
2023/08/21 01:09:00;;;;;;;3.92;1.30;;;21.60;93.00;;;;;;6130479;23;20002;-81
2023/08/21 01:11:33;;;;;;;3.15;1.38;;;21.50;92.90;;;;;;6032235;23;20352;-81
2023/08/21 01:14:26;;;;;;;3.80;1.45;;;21.50;92.80;;;;;;6104712;23;20025;-81
2023/08/21 01:16:59;;;;;;;3.22;1.20;;;21.40;92.90;;;;;;6104334;23;20001;-81
2023/08/21 01:19:36;;;;;;;3.33;1.40;;;21.50;92.90;;;;;;6104212;23;20025;-82
2023/08/21 01:22:02;;;;;;;4.78;1.50;;;21.50;92.90;;;;;;6104086;23;20008;-82
2023/08/21 01:24:28;;;;;;;3.55;1.35;;;21.40;92.90;;;;;;6129203;23;20034;-81
2023/08/21 01:26:53;;;;;;;4.07;1.33;;;21.40;92.80;;;;;;6129519;23;20005;-81
2023/08/21 01:29:19;;;;;;;5.03;1.60;;;21.50;92.80;;;;;;6103390;23;20101;-81
2023/08/21 01:31:50;;;;;;;3.22;1.25;;;21.50;92.90;;;;;;6129111;23;20380;-81
2023/08/21 01:34:16;;;;;;;4.25;1.50;;;21.40;92.80;;;;;;6102511;23;20004;-81
2023/08/21 01:36:43;;;;;;;5.15;1.45;;;21.40;92.90;;;;;;6103318;23;20005;-81
2023/08/21 01:39:09;;;;;;;4.68;1.50;;;21.40;92.80;;;;;;6129117;23;20006;-81
2023/08/21 01:41:34;;;;;;;4.32;1.30;;;21.40;92.90;;;;;;6128980;23;20013;-81
2023/08/21 01:44:00;;;;;;;3.40;1.30;;;21.40;92.90;;;;;;6128413;23;20002;-81
2023/08/21 01:46:25;;;;;;;4.18;1.35;;;21.40;92.90;;;;;;6102168;23;20038;-81
2023/08/21 01:48:51;;;;;;;3.63;1.42;;;21.40;92.80;;;;;;6102406;23;20025;-81
2023/08/21 01:51:16;;;;;;;3.75;1.48;;;21.40;92.80;;;;;;6128534;23;20002;-81
2023/08/21 01:53:42;;;;;;;2.28;1.20;;;21.40;92.80;;;;;;6127814;23;20002;-81
2023/08/21 01:56:07;;;;;;;4.20;1.50;;;21.40;92.80;;;;;;6102121;23;20330;-82
2023/08/21 01:58:33;;;;;;;4.28;1.70;;;21.40;92.80;;;;;;6101725;23;20433;-81
2023/08/21 02:00:58;;;;;;;2.58;1.20;;;21.40;92.70;;;;;;6127788;23;20001;-81
2023/08/21 02:03:27;;;;;;;3.30;1.40;;;21.40;92.70;;;;;;6101757;23;20016;-80
2023/08/21 02:05:57;;;;;;;3.10;1.30;;;21.40;92.80;;;;;;6101492;23;20006;-81
2023/08/21 02:08:26;;;;;;;3.08;1.27;;;21.40;92.80;;;;;;6127570;23;20002;-81
2023/08/21 02:10:52;;;;;;;6.07;1.70;;;21.40;92.90;;;;;;6125365;23;19998;-81
2023/08/21 02:13:19;;;;;;;3.13;1.27;;;21.40;92.80;;;;;;6100570;23;20528;-81
2023/08/21 02:15:44;;;;;;;2.72;1.15;;;21.40;92.80;;;;;;6127191;23;20002;-80
2023/08/21 02:18:10;;;;;;;3.67;1.40;;;21.40;92.80;;;;;;6127216;23;20002;-81
2023/08/21 02:20:35;;;;;;;5.47;1.48;;;21.40;92.80;;;;;;6101198;23;20010;-81
2023/08/21 02:23:01;;;;;;;4.43;1.25;;;21.40;92.70;;;;;;6126764;23;20060;-81
2023/08/21 02:25:26;;;;;;;3.90;1.20;;;21.40;92.60;;;;;;6126335;23;20009;-81
2023/08/21 02:27:52;;;;;;;2.65;1.25;;;21.40;92.70;;;;;;6100210;23;20070;-80
2023/08/21 02:30:17;;;;;;;3.40;1.42;;;21.40;92.60;;;;;;6100475;23;20006;-81
2023/08/21 02:32:43;;;;;;;4.50;1.55;;;21.40;92.50;;;;;;6100845;23;20002;-80
2023/08/21 02:35:09;;;;;;;2.92;1.20;;;21.40;92.50;;;;;;6126602;23;20009;-81
2023/08/21 02:37:38;;;;;;;3.28;1.10;;;21.40;92.40;;;;;;6102329;23;20010;-81
2023/08/21 02:40:07;;;;;;;4.53;1.38;;;21.40;92.40;;;;;;6102428;23;20006;-82
2023/08/21 02:42:33;;;;;;;4.40;1.38;;;21.40;92.50;;;;;;6102153;23;20006;-81
2023/08/21 02:44:58;;;;;;;3.58;1.33;;;21.40;92.50;;;;;;6101658;23;20449;-81
2023/08/21 02:47:24;;;;;;;3.00;1.50;;;21.40;92.50;;;;;;6128462;23;20002;-80
2023/08/21 02:49:50;;;;;;;3.38;1.30;;;21.30;92.50;;;;;;6127962;23;20002;-80
2023/08/21 02:52:17;;;;;;;3.28;1.20;;;21.40;92.50;;;;;;6128045;23;20013;-81
2023/08/21 02:54:42;;;;;;;2.85;1.27;;;21.30;92.60;;;;;;6101577;23;20002;-81
2023/08/21 02:57:08;;;;;;;3.08;1.15;;;21.30;92.70;;;;;;6127668;23;20340;-80
2023/08/21 02:59:33;;;;;;;2.15;1.15;;;21.40;92.50;;;;;;6101849;23;20081;-81
2023/08/21 03:01:59;;;;;;;3.50;1.35;;;21.30;92.50;;;;;;6101881;23;20054;-80
2023/08/21 03:04:24;;;;;;;3.25;1.30;;;21.30;92.50;;;;;;6127308;23;20068;-80
2023/08/21 03:06:50;;;;;;;3.45;1.30;;;21.30;92.50;;;;;;6101777;23;20006;-81
2023/08/21 03:09:15;;;;;;;3.38;1.40;;;21.30;92.50;;;;;;6127246;23;20381;-81
2023/08/21 03:11:41;;;;;;;3.13;1.23;;;21.40;92.50;;;;;;6127422;23;20002;-81
2023/08/21 03:14:06;;;;;;;2.67;1.17;;;21.30;92.50;;;;;;6101243;23;20069;-80
2023/08/21 03:16:32;;;;;;;5.20;1.40;;;21.30;92.50;;;;;;6101557;23;20006;-80
2023/08/21 03:18:59;;;;;;;3.95;1.30;;;21.30;92.40;;;;;;6127364;23;20373;-80
2023/08/21 03:21:25;;;;;;;5.05;1.55;;;21.30;92.40;;;;;;6101686;23;20010;-81
2023/08/21 03:23:56;;;;;;;2.85;1.10;;;21.30;92.40;;;;;;6101210;23;20016;-80
2023/08/21 03:26:22;;;;;;;5.50;1.42;;;21.30;92.40;;;;;;6101231;23;20006;-80
2023/08/21 03:28:48;;;;;;;2.38;1.23;;;21.30;92.40;;;;;;6100042;23;20006;-82
2023/08/21 03:31:14;;;;;;;5.82;1.35;;;21.30;92.40;;;;;;6100733;23;20390;-83
2023/08/21 03:33:40;;;;;;;3.65;1.50;;;21.30;92.50;;;;;;6095429;23;20009;-81
2023/08/21 03:36:05;;;;;;;5.43;1.50;;;21.30;92.50;;;;;;6124309;23;20006;-82
2023/08/21 03:38:31;;;;;;;3.60;1.38;;;21.30;92.50;;;;;;6098985;23;20081;-81
2023/08/21 03:40:56;;;;;;;3.25;1.30;;;21.30;92.50;;;;;;6134361;23;20065;-82
2023/08/21 03:43:22;;;;;;;4.43;1.50;;;21.30;92.50;;;;;;6100645;23;20373;-81
2023/08/21 03:45:47;;;;;;;3.60;1.40;;;21.40;92.70;;;;;;6099860;23;20041;-83
2023/08/21 03:48:13;;;;;;;3.00;1.10;;;21.30;92.40;;;;;;6126541;23;20080;-80
2023/08/21 03:50:39;;;;;;;2.80;1.27;;;21.30;92.40;;;;;;6126231;23;20025;-82
2023/08/21 03:53:04;;;;;;;4.00;1.20;;;21.20;92.40;;;;;;6099615;23;20745;-81
2023/08/21 03:55:30;;;;;;;5.80;1.60;;;21.40;92.40;;;;;;6100261;23;20017;-88
2023/08/21 03:57:56;;;;;;;4.47;1.40;;;21.40;92.40;;;;;;6102155;23;20010;-87
2023/08/21 04:00:22;;;;;;;2.50;1.10;;;21.30;92.20;;;;;;6133544;23;20025;-89
2023/08/21 04:02:47;;;;;;;3.50;1.30;;;21.30;92.20;;;;;;6109770;23;20010;-84
2023/08/21 04:05:13;;;;;;;7.20;1.55;;;21.30;92.10;;;;;;6128064;23;20006;-81
2023/08/21 04:07:39;;;;;;;7.10;1.60;;;21.30;92.00;;;;;;6101127;23;20057;-84
2023/08/21 04:10:05;;;;;;;6.35;1.60;;;21.30;92.00;;;;;;6126124;23;20030;-86
2023/08/21 04:12:31;;;;;;;4.47;1.40;;;21.30;92.00;;;;;;6100405;23;20077;-82
2023/08/21 04:14:56;;;;;;;4.78;1.52;;;21.30;92.00;;;;;;6100269;23;20010;-81
2023/08/21 04:17:23;;;;;;;4.88;1.40;;;21.30;92.00;;;;;;6100300;23;20006;-81
2023/08/21 04:19:49;;;;;;;7.10;1.65;;;21.20;92.00;;;;;;6126077;23;20463;-81
2023/08/21 04:22:14;;;;;;;3.60;1.40;;;21.30;92.10;;;;;;6098602;23;20010;-79
2023/08/21 04:24:41;;;;;;;3.88;1.35;;;21.20;92.10;;;;;;6099489;23;20013;-81
2023/08/21 04:27:07;;;;;;;6.13;1.52;;;21.20;92.10;;;;;;6125427;23;20017;-81
2023/08/21 04:29:32;;;;;;;3.47;1.30;;;21.20;92.10;;;;;;6099204;23;20089;-83
2023/08/21 04:31:58;;;;;;;5.95;1.45;;;21.20;92.20;;;;;;6098251;23;20006;-81
2023/08/21 04:34:23;;;;;;;3.17;1.30;;;21.20;92.20;;;;;;6098464;23;20014;-80
2023/08/21 04:36:49;;;;;;;4.53;1.30;;;21.20;92.20;;;;;;6095771;23;20002;-81
2023/08/21 04:39:14;;;;;;;2.88;1.20;;;21.20;92.20;;;;;;6096858;23;20010;-81
2023/08/21 04:41:41;;;;;;;4.32;1.20;;;21.10;92.10;;;;;;6121655;23;20010;-81
2023/08/21 04:44:07;;;;;;;5.57;1.83;;;21.20;92.20;;;;;;6096230;23;20779;-80
2023/08/21 04:46:32;;;;;;;5.03;1.40;;;21.20;92.20;;;;;;6124389;23;20014;-81
2023/08/21 04:48:58;;;;;;;4.85;1.60;;;21.20;92.20;;;;;;6098261;23;20392;-81
2023/08/21 04:51:23;;;;;;;5.28;1.40;;;21.20;92.20;;;;;;6124790;23;20064;-80
2023/08/21 04:53:49;;;;;;;4.35;1.40;;;21.20;92.20;;;;;;6123542;23;20097;-80
2023/08/21 04:56:14;;;;;;;4.80;1.40;;;21.20;92.30;;;;;;6123885;23;20525;-80
2023/08/21 04:58:40;;;;;;;3.03;1.20;;;21.20;92.30;;;;;;6097641;23;20489;-81
2023/08/21 05:01:05;;;;;;;15.88;2.30;;;21.20;92.40;;;;;;6123700;23;20010;-79
2023/08/21 05:03:31;;;;;;;5.00;1.50;;;21.20;92.30;;;;;;6123628;23;20008;-79
2023/08/21 05:05:57;;;;;;;9.57;1.90;;;21.30;92.30;;;;;;6097595;23;19998;-79
2023/08/21 05:08:24;;;;;;;9.18;1.75;;;21.40;92.20;;;;;;6123695;23;20029;-80
2023/08/21 05:10:59;;;;;;;5.93;1.50;;;21.40;92.10;;;;;;6097491;23;20005;-79
2023/08/21 05:13:25;;;;;;;3.40;1.50;;;21.40;92.00;;;;;;6097766;23;20100;-80
2023/08/21 05:15:55;;;;;;;6.70;1.67;;;21.50;92.00;;;;;;6097747;23;20048;-84
2023/08/21 05:18:22;;;;;;;5.78;1.40;;;21.50;91.90;;;;;;6097605;23;20010;-79
2023/08/21 05:20:48;;;;;;;6.78;1.67;;;21.50;91.80;;;;;;6123712;23;20010;-80
2023/08/21 05:23:14;;;;;;;6.55;1.45;;;21.50;91.90;;;;;;6096458;23;20009;-79
2023/08/21 05:25:39;;;;;;;7.28;1.48;;;21.50;91.90;;;;;;6121147;23;20009;-81
2023/08/21 05:28:06;;;;;;;8.10;1.65;;;21.50;91.90;;;;;;6096586;23;20005;-79
2023/08/21 05:30:31;;;;;;;4.30;1.63;;;21.50;91.90;;;;;;6097656;23;20017;-81
2023/08/21 05:32:57;;;;;;;5.15;1.50;;;21.50;91.90;;;;;;6097218;23;20425;-79
2023/08/21 05:35:22;;;;;;;6.07;1.48;;;21.50;91.90;;;;;;6096502;23;20038;-79
2023/08/21 05:37:48;;;;;;;6.85;1.48;;;21.50;92.00;;;;;;6121953;23;20112;-78
2023/08/21 05:40:14;;;;;;;7.82;1.65;;;21.50;92.00;;;;;;6097089;23;20010;-79
2023/08/21 05:42:40;;;;;;;5.45;1.40;;;21.50;92.10;;;;;;6100987;23;20071;-79
2023/08/21 05:45:06;;;;;;;6.63;1.80;;;21.50;92.10;;;;;;6099860;23;20014;-79
2023/08/21 05:47:31;;;;;;;6.60;1.70;;;21.50;92.10;;;;;;6100711;23;20060;-80
2023/08/21 05:49:57;;;;;;;5.47;1.48;;;21.50;92.20;;;;;;6100030;23;20426;-81
2023/08/21 05:52:23;;;;;;;4.22;1.27;;;21.50;92.20;;;;;;6099526;23;20437;-80
2023/08/21 05:54:49;;;;;;;4.30;1.35;;;21.50;92.20;;;;;;6099527;23;20485;-80
2023/08/21 05:57:15;;;;;;;3.22;1.30;;;21.50;92.20;;;;;;6125399;23;20025;-79
2023/08/21 05:59:45;;;;;;;4.53;1.33;;;21.50;92.20;;;;;;6099708;23;20005;-80
2023/08/21 06:02:11;;;;;;;4.55;1.60;;;21.50;92.10;;;;;;6099955;23;20428;-80
2023/08/21 06:04:39;;;;;;;5.85;1.30;;;21.50;92.10;;;;;;6125077;23;20006;-79
2023/08/21 06:07:05;;;;;;;5.90;1.63;;;21.50;92.10;;;;;;6099528;23;20006;-79
2023/08/21 06:09:33;;;;;;;6.07;1.40;;;21.50;92.10;;;;;;6125423;23;19998;-80
2023/08/21 06:12:05;;;;;;;3.83;1.30;;;21.60;92.10;;;;;;6125620;23;20009;-80
2023/08/21 06:14:30;;;;;;;;;;;21.60;92.00;;;;;;6099560;23;20006;-80
2023/08/21 06:17:03;;;;;;;4.93;1.30;;;21.60;92.10;;;;;;6125693;23;20383;-80
2023/08/21 06:19:29;;;;;;;5.38;1.30;;;21.60;92.10;;;;;;6099398;23;20010;-80
2023/08/21 06:21:57;;;;;;;5.72;1.83;;;21.60;92.10;;;;;;6099312;23;20141;-80
2023/08/21 06:24:23;;;;;;;4.57;1.27;;;21.60;92.10;;;;;;6124648;23;20456;-81
2023/08/21 06:26:51;;;;;;;3.58;1.27;;;21.60;92.10;;;;;;6099220;23;20005;-80
2023/08/21 06:29:16;;;;;;;3.20;1.00;;;21.60;92.10;;;;;;6099146;23;20004;-79
2023/08/21 06:31:43;;;;;;;4.35;1.30;;;21.60;92.00;;;;;;6099544;23;20385;-80
2023/08/21 06:34:08;;;;;;;3.90;1.40;;;21.70;92.00;;;;;;6124887;23;20002;-80
2023/08/21 06:36:34;;;;;;;4.80;1.15;;;21.70;91.90;;;;;;6099187;23;20341;-79
2023/08/21 06:38:59;;;;;;;3.15;1.17;;;21.70;91.90;;;;;;6125051;23;20034;-79
2023/08/21 06:41:25;;;;;;;4.85;1.17;;;21.70;91.80;;;;;;6125380;23;20037;-80
2023/08/21 06:43:51;;;;;;;5.57;1.38;;;21.80;91.80;;;;;;6098685;23;20010;-80
2023/08/21 06:46:16;;;;;;;3.13;1.30;;;21.70;91.80;;;;;;6124914;23;20080;-81
2023/08/21 06:48:42;;;;;;;3.63;1.20;;;21.70;91.80;;;;;;6124542;23;20279;-80
2023/08/21 06:51:09;;;;;;;5.18;1.30;;;21.80;91.80;;;;;;6124771;23;20082;-79
2023/08/21 06:53:35;;;;;;;2.78;1.30;;;21.80;91.80;;;;;;6102972;23;20006;-80
2023/08/21 06:56:00;;;;;;;3.15;1.08;;;21.80;91.80;;;;;;6104224;23;20006;-79
2023/08/21 06:58:26;;;;;;;5.32;1.15;;;21.70;91.90;;;;;;6104657;23;20006;-81
2023/08/21 07:00:53;;;;;;;3.25;1.30;;;21.70;91.90;;;;;;6103537;23;20017;-81
2023/08/21 07:03:20;;;;;;;5.32;1.48;;;21.70;92.00;;;;;;6103960;23;20033;-80
2023/08/21 07:05:56;;;;;;;2.72;1.20;;;21.70;92.00;;;;;;6129933;23;20002;-80
2023/08/21 07:08:22;;;;;;;3.30;1.10;;;21.80;91.90;;;;;;6130097;23;20006;-80
2023/08/21 07:10:47;;;;;;;3.75;1.10;;;21.80;91.90;;;;;;6129971;23;20009;-80
2023/08/21 07:13:13;;;;;;;3.63;1.20;;;21.90;91.80;;;;;;6105187;23;20010;-80
2023/08/21 07:15:38;;;;;;;2.80;1.10;;;21.80;91.80;;;;;;6105043;23;20025;-81
2023/08/21 07:18:04;;;;;;;3.28;1.05;;;21.90;91.80;;;;;;6104710;23;20006;-81
2023/08/21 07:20:29;;;;;;;3.75;1.10;;;21.90;91.70;;;;;;6104415;23;20086;-81
2023/08/21 07:22:55;;;;;;;3.15;1.20;;;21.90;91.60;;;;;;6106104;23;20013;-81
2023/08/21 07:25:20;;;;;;;3.97;1.23;;;21.90;91.70;;;;;;6131632;23;20337;-80
2023/08/21 07:27:46;;;;;;;4.43;1.20;;;21.90;91.80;;;;;;6105690;23;20006;-81
2023/08/21 07:30:11;;;;;;;2.97;1.10;;;21.80;92.00;;;;;;6105409;23;20056;-80
2023/08/21 07:32:37;;;;;;;2.47;1.10;;;21.90;91.80;;;;;;6105074;23;20012;-79
2023/08/21 07:35:03;;;;;;;2.90;1.00;;;21.90;91.70;;;;;;6105104;23;20069;-80
2023/08/21 07:37:28;;;;;;;3.15;1.17;;;22.00;91.60;;;;;;6131357;23;20002;-80
2023/08/21 07:39:57;;;;;;;2.40;1.20;;;22.00;91.60;;;;;;6104685;23;20030;-80
2023/08/21 07:42:23;;;;;;;1.90;1.00;;;22.00;91.50;;;;;;6104716;23;20002;-80
2023/08/21 07:44:48;;;;;;;2.90;1.10;;;22.00;91.50;;;;;;6103312;23;20097;-80
2023/08/21 07:47:14;;;;;;;2.47;1.10;;;22.00;91.40;;;;;;6130064;23;20001;-80
2023/08/21 07:49:39;;;;;;;5.03;1.20;;;22.00;91.50;;;;;;6104307;23;19998;-80
2023/08/21 07:52:05;;;;;;;2.60;1.00;;;22.10;91.50;;;;;;6103540;23;19998;-80
2023/08/21 07:54:30;;;;;;;2.35;1.10;;;22.10;91.40;;;;;;6129388;23;20079;-80
2023/08/21 07:56:56;;;;;;;2.92;1.27;;;22.20;91.40;;;;;;6103147;23;20006;-79
2023/08/21 07:59:22;;;;;;;2.95;1.10;;;22.20;91.30;;;;;;6104250;23;20005;-80
2023/08/21 08:01:47;;;;;;;3.65;1.30;;;22.30;91.30;;;;;;6102844;23;20006;-80
2023/08/21 08:04:13;;;;;;;2.53;0.90;;;22.30;91.20;;;;;;6102460;23;20434;-80
2023/08/21 08:06:39;;;;;;;1.75;0.90;;;22.30;91.10;;;;;;6129032;23;20010;-81
2023/08/21 08:09:04;;;;;;;3.03;1.20;;;22.40;91.10;;;;;;6102975;23;20009;-80
2023/08/21 08:11:30;;;;;;;2.33;1.13;;;22.40;91.00;;;;;;6128592;23;20013;-80
2023/08/21 08:13:56;;;;;;;2.17;0.98;;;22.40;90.90;;;;;;6128130;23;20010;-80
2023/08/21 08:16:22;;;;;;;1.02;0.80;;;22.40;90.90;;;;;;6102490;23;20013;-80
2023/08/21 08:18:48;;;;;;;2.13;0.90;;;22.50;90.80;;;;;;6128666;23;20002;-80
2023/08/21 08:21:13;;;;;;;2.97;0.93;;;22.50;90.80;;;;;;6102178;23;20006;-80
2023/08/21 08:23:39;;;;;;;2.25;0.90;;;22.50;90.70;;;;;;6101217;23;20455;-80
2023/08/21 08:26:04;;;;;;;1.90;0.88;;;22.50;90.70;;;;;;6101126;23;20006;-81
2023/08/21 08:28:30;;;;;;;2.17;0.90;;;22.50;90.80;;;;;;6102210;23;20275;-80
2023/08/21 08:30:55;;;;;;;1.98;1.00;;;22.50;90.90;;;;;;6101872;23;20009;-80
2023/08/21 08:33:21;;;;;;;1.48;0.93;;;22.50;91.00;;;;;;6127337;23;20021;-80
2023/08/21 08:35:46;;;;;;;2.50;1.00;;;22.50;91.10;;;;;;6101243;23;20558;-80
2023/08/21 08:38:12;;;;;;;2.25;1.00;;;22.40;91.00;;;;;;6101574;23;20345;-80
2023/08/21 08:40:43;;;;;;;2.53;1.13;;;22.40;91.10;;;;;;6101260;23;20006;-80
2023/08/21 08:43:09;;;;;;;1.77;1.00;;;22.40;91.10;;;;;;6100987;23;20073;-80
2023/08/21 08:45:36;;;;;;;2.00;1.00;;;22.50;91.10;;;;;;6100288;23;20010;-80
2023/08/21 08:48:04;;;;;;;2.65;1.10;;;22.50;91.10;;;;;;6100839;23;20038;-80
2023/08/21 08:50:31;;;;;;;2.15;0.90;;;22.50;91.10;;;;;;6100753;23;20009;-80
2023/08/21 08:52:58;;;;;;;1.70;0.80;;;22.50;91.10;;;;;;6100664;23;20002;-80
2023/08/21 08:55:24;;;;;;;2.80;1.02;;;22.40;91.10;;;;;;6100267;23;20009;-79
2023/08/21 08:57:52;;;;;;;2.80;1.00;;;22.40;91.20;;;;;;6126078;23;20033;-80
2023/08/21 09:00:17;;;;;;;1.73;0.88;;;22.40;91.30;;;;;;6100480;23;20018;-80
2023/08/21 09:02:43;;;;;;;2.72;0.90;;;22.40;91.30;;;;;;6100319;23;20468;-81
2023/08/21 09:05:10;;;;;;;2.25;1.00;;;22.40;91.40;;;;;;6099661;23;20356;-79
2023/08/21 09:07:36;;;;;;;2.13;0.90;;;22.30;91.40;;;;;;6126543;23;20069;-80
2023/08/21 09:10:02;;;;;;;1.83;1.00;;;22.30;91.50;;;;;;6126251;23;20385;-79
2023/08/21 09:12:31;;;;;;;2.13;0.90;;;22.30;91.50;;;;;;6126340;23;20002;-79
2023/08/21 09:14:59;;;;;;;2.20;0.88;;;22.30;91.50;;;;;;6126156;23;19998;-80
2023/08/21 09:17:26;;;;;;;1.60;0.90;;;22.30;91.60;;;;;;6099994;23;20092;-80
2023/08/21 09:19:51;;;;;;;2.10;0.90;;;22.30;91.60;;;;;;6125878;23;19998;-80
2023/08/21 09:22:18;;;;;;;2.45;1.00;;;22.30;91.70;;;;;;6099682;23;19998;-80
2023/08/21 09:25:04;;;;;;;2.28;0.90;;;22.30;91.60;;;;;;6125574;23;20068;-79
2023/08/21 09:27:30;;;;;;;2.65;1.02;;;22.30;91.60;;;;;;6125713;23;20002;-79
2023/08/21 09:29:57;;;;;;;3.00;1.05;;;22.40;91.40;;;;;;6125684;23;20048;-79
2023/08/21 09:32:22;;;;;;;1.92;1.00;;;22.40;91.40;;;;;;6099551;23;20337;-79
2023/08/21 09:34:48;;;;;;;1.75;1.05;;;22.50;91.30;;;;;;6125061;23;19998;-80
2023/08/21 09:37:13;;;;;;;1.50;0.95;;;22.50;91.20;;;;;;6099482;23;20002;-80
2023/08/21 09:39:39;;;;;;;2.08;1.00;;;22.50;91.20;;;;;;6099568;23;20069;-80
2023/08/21 09:42:08;;;;;;;2.15;1.00;;;22.50;91.20;;;;;;6099624;23;20002;-80
2023/08/21 09:44:42;;;;;;;1.52;1.02;;;22.50;91.20;;;;;;6098974;23;20120;-79
2023/08/21 09:47:09;;;;;;;1.75;0.90;;;22.50;91.20;;;;;;6099627;23;20495;-79
2023/08/21 09:49:37;;;;;;;1.90;0.85;;;22.50;91.20;;;;;;6099565;23;20006;-79
2023/08/21 09:52:05;;;;;;;2.97;0.90;;;22.50;91.30;;;;;;6099234;23;20006;-80
2023/08/21 09:54:33;;;;;;;1.60;0.88;;;22.40;91.30;;;;;;6098938;23;20013;-80
2023/08/21 09:57:02;;;;;;;1.50;0.90;;;22.40;91.40;;;;;;6124793;23;20006;-80
2023/08/21 09:59:28;;;;;;;1.77;1.00;;;22.40;91.50;;;;;;6125333;23;20002;-80
2023/08/21 10:01:57;;;;;;;1.77;0.95;;;22.40;91.50;;;;;;6125369;23;20013;-80
2023/08/21 10:04:23;;;;;;;1.42;0.82;;;22.40;91.50;;;;;;6125063;23;20010;-79
2023/08/21 10:06:52;;;;;;;1.38;0.88;;;22.40;91.60;;;;;;6103208;23;20010;-80
2023/08/21 10:09:18;;;;;;;2.03;0.90;;;22.30;91.60;;;;;;6104563;23;20468;-81
2023/08/21 10:11:44;;;;;;;2.13;1.02;;;22.30;91.70;;;;;;6131290;23;20005;-80
2023/08/21 10:14:11;;;;;;;2.33;0.90;;;22.30;91.70;;;;;;6104564;23;20002;-80
2023/08/21 10:16:36;;;;;;;1.80;1.08;;;22.30;91.70;;;;;;6105028;23;20092;-80
2023/08/21 10:19:05;;;;;;;2.38;0.90;;;22.30;91.60;;;;;;6130834;23;20006;-80
2023/08/21 10:21:36;;;;;;;2.95;1.10;;;22.30;91.70;;;;;;6105000;23;20069;-81
2023/08/21 10:24:01;;;;;;;2.60;0.95;;;22.40;91.60;;;;;;6129576;23;20004;-80
2023/08/21 10:26:27;;;;;;;2.72;0.88;;;22.40;91.60;;;;;;6130482;23;20006;-80
2023/08/21 10:29:02;;;;;;;1.75;0.85;;;22.40;91.70;;;;;;6105137;23;20002;-81
2023/08/21 10:31:39;;;;;;;0.90;0.73;;;22.40;91.60;;;;;;6105095;23;20486;-81
2023/08/21 10:34:09;;;;;;;1.88;0.95;;;22.40;91.60;;;;;;6129937;23;19995;-80
2023/08/21 10:36:40;;;;;;;1.60;0.80;;;22.40;91.60;;;;;;6130261;23;20036;-80
2023/08/21 10:39:12;;;;;;;;;;;22.40;91.60;;;;;;6104872;23;20037;-80
2023/08/21 10:41:38;;;;;;;2.08;0.88;;;22.40;91.60;;;;;;6103896;23;19931;-81
2023/08/21 10:44:06;;;;;;;1.45;0.90;;;22.40;91.60;;;;;;6102433;23;20006;-81
2023/08/21 10:46:50;;;;;;;1.55;0.80;;;22.40;91.60;;;;;;6130259;23;20078;-80
2023/08/21 10:49:15;;;;;;;1.45;0.77;;;22.40;91.60;;;;;;6129191;23;20579;-81
2023/08/21 10:51:43;;;;;;;1.92;0.88;;;22.50;91.50;;;;;;6102959;23;20002;-80
2023/08/21 10:54:13;;;;;;;1.38;0.80;;;22.50;91.50;;;;;;6102433;23;20006;-80
2023/08/21 10:56:39;;;;;;;1.08;0.80;;;22.50;91.40;;;;;;6103766;23;20006;-80
2023/08/21 10:59:04;;;;;;;0.90;0.70;;;22.50;91.30;;;;;;6130864;23;20012;-80
2023/08/21 11:01:44;;;;;;;1.58;0.90;;;22.60;91.40;;;;;;6104924;23;20041;-81
2023/08/21 11:04:11;;;;;;;2.37;1.03;;;22.60;91.30;;;;;;6104260;23;20013;-80
2023/08/21 11:06:36;;;;;;;1.52;0.77;;;22.70;91.30;;;;;;6103626;23;20397;-80
2023/08/21 11:09:03;;;;;;;1.63;0.80;;;22.60;91.30;;;;;;6104225;23;20002;-80
2023/08/21 11:11:29;;;;;;;2.22;0.98;;;22.60;91.30;;;;;;6130156;23;20077;-79
2023/08/21 11:13:55;;;;;;;1.20;0.80;;;22.60;91.30;;;;;;6102983;23;20002;-80
2023/08/21 11:16:20;;;;;;;1.98;0.90;;;22.60;91.40;;;;;;6129509;23;20089;-79
2023/08/21 11:18:46;;;;;;;1.52;0.98;;;22.60;91.40;;;;;;6103696;23;20010;-80
2023/08/21 11:21:12;;;;;;;1.58;0.80;;;22.60;91.40;;;;;;6102839;23;20002;-79
2023/08/21 11:23:39;;;;;;;1.95;0.90;;;22.60;91.40;;;;;;6128951;23;20013;-80
2023/08/21 11:26:07;;;;;;;1.95;0.75;;;22.60;91.40;;;;;;6102583;23;20010;-80
2023/08/21 11:28:33;;;;;;;1.42;0.77;;;22.60;91.40;;;;;;6128738;23;20005;-79
2023/08/21 11:30:59;;;;;;;2.38;0.90;;;22.60;91.40;;;;;;6128826;23;20005;-80
2023/08/21 11:33:26;;;;;;;2.15;1.00;;;22.60;91.70;;;;;;6102330;23;20093;-78
2023/08/21 11:35:53;;;;;;;1.70;0.70;;;22.50;91.40;;;;;;6102261;23;20057;-80
2023/08/21 11:38:20;;;;;;;1.25;0.80;;;22.60;91.40;;;;;;6102278;23;20096;-80
2023/08/21 11:41:05;;;;;;;1.60;0.90;;;22.50;91.40;;;;;;6101817;23;20093;-80
2023/08/21 11:43:35;;;;;;;1.27;0.80;;;22.50;91.40;;;;;;6101502;23;20010;-77
2023/08/21 11:46:02;;;;;;;2.05;0.90;;;22.50;91.50;;;;;;6127684;23;20326;-80
2023/08/21 11:48:28;;;;;;;1.85;0.80;;;22.50;91.50;;;;;;6102140;23;20464;-80
2023/08/21 11:50:54;;;;;;;1.85;1.00;;;22.50;91.50;;;;;;6127755;23;19998;-80
2023/08/21 11:53:35;;;;;;;1.15;0.80;;;22.50;91.60;;;;;;6127710;23;19998;-79
2023/08/21 11:56:01;;;;;;;1.63;1.00;;;22.50;91.60;;;;;;6101252;23;20037;-79
2023/08/21 11:58:30;;;;;;;1.00;0.77;;;22.60;91.60;;;;;;6101762;23;20029;-80
2023/08/21 12:01:03;;;;;;;1.55;0.90;;;22.50;91.60;;;;;;6127325;23;20006;-79
2023/08/21 12:03:29;;;;;;;1.77;0.90;;;22.60;91.60;;;;;;6100964;23;20092;-80
2023/08/21 12:05:55;;;;;;;1.88;0.85;;;22.50;91.60;;;;;;6126811;23;20045;-81
2023/08/21 12:08:20;;;;;;;1.08;0.80;;;22.60;91.60;;;;;;6100898;23;20065;-81
2023/08/21 12:10:52;;;;;;;1.42;0.90;;;22.60;91.60;;;;;;6100974;23;20412;-80
2023/08/21 12:13:17;;;;;;;;;;;22.60;91.50;;;;;;6127479;23;20004;-80
2023/08/21 12:15:43;;;;;;;2.78;1.08;;;22.60;91.50;;;;;;6124974;23;19983;-80
2023/08/21 12:18:08;;;;;;;1.48;0.90;;;22.60;91.50;;;;;;6100900;23;20005;-79
2023/08/21 12:20:34;;;;;;;1.23;0.75;;;22.60;91.50;;;;;;6126870;23;20037;-80
2023/08/21 12:22:59;;;;;;;1.98;0.90;;;22.60;91.50;;;;;;6100860;23;20006;-81
2023/08/21 12:25:25;;;;;;;0.95;0.80;;;22.60;91.40;;;;;;6126162;23;20002;-79
2023/08/21 12:27:51;;;;;;;1.08;0.80;;;22.70;91.40;;;;;;6126716;23;20057;-80
2023/08/21 12:30:16;;;;;;;2.53;1.00;;;22.70;91.30;;;;;;6100421;23;20086;-80
2023/08/21 12:32:41;;;;;;;1.80;0.82;;;22.70;91.30;;;;;;6100428;23;20002;-80
2023/08/21 12:35:10;;;;;;;1.58;1.15;;;22.70;91.30;;;;;;6126081;23;20013;-79
2023/08/21 12:37:36;;;;;;;2.05;0.90;;;22.70;91.30;;;;;;6126399;23;19998;-80
2023/08/21 12:40:02;;;;;;;1.00;0.60;;;22.70;91.30;;;;;;6099967;23;20029;-79
2023/08/21 12:42:28;;;;;;;2.13;0.80;;;22.70;91.30;;;;;;6126074;23;20060;-80
2023/08/21 12:44:53;;;;;;;1.42;0.88;;;22.70;91.20;;;;;;6099551;23;20017;-80